Time;durP1;ratioP1;P1;durP2;ratioP2;P2;SDS_P1;SDS_P2;PMS_P1;PMS_P2;Temp;Humidity;BMP_temperature;BMP_pressure;BME280_temperature;BME280_humidity;BME280_pressure;Samples;Min_cycle;Max_cycle;Signal;HPM_P1;HPM_P2
2022/02/14 00:00:40;;;;;;;8.90;3.10;;;10.10;99.90;;;;;;4931085;29;20424;-89
2022/02/14 00:03:15;;;;;;;3.03;2.67;;;10.30;99.90;;;;;;4912939;29;20455;-87
2022/02/14 00:05:41;;;;;;;3.43;3.10;;;10.10;99.90;;;;;;4891818;29;20466;-87
2022/02/14 00:08:07;;;;;;;3.23;3.03;;;10.10;99.90;;;;;;4924213;29;20468;-89
2022/02/14 00:10:36;;;;;;;2.97;2.73;;;10.20;99.90;;;;;;4902499;29;20818;-89
2022/02/14 00:13:02;;;;;;;3.30;3.00;;;10.10;99.90;;;;;;4907490;29;20682;-88
2022/02/14 00:15:31;;;;;;;4.03;2.67;;;10.10;99.90;;;;;;4929469;29;20476;-88
2022/02/14 00:17:57;;;;;;;5.00;2.77;;;8.20;99.90;;;;;;4913147;29;20554;-89
2022/02/14 00:20:23;;;;;;;4.83;3.27;;;10.10;99.90;;;;;;4926452;29;20436;-88
2022/02/14 00:22:49;;;;;;;2.00;1.98;;;10.20;99.90;;;;;;4897243;29;20257;-88
2022/02/14 00:25:19;;;;;;;2.97;2.60;;;10.20;99.90;;;;;;4917900;29;20203;-84
2022/02/14 00:27:46;;;;;;;6.30;3.07;;;10.20;99.90;;;;;;4920064;29;20473;-86
2022/02/14 00:30:15;;;;;;;4.43;3.30;;;10.20;99.90;;;;;;4921540;29;20431;-88
2022/02/14 00:32:41;;;;;;;2.90;2.60;;;10.30;99.90;;;;;;4922392;29;20447;-86
2022/02/14 00:35:10;;;;;;;3.80;3.47;;;10.20;99.90;;;;;;4923700;29;20506;-87
2022/02/14 00:37:37;;;;;;;4.47;3.20;;;10.20;99.90;;;;;;4902324;29;20204;-88
2022/02/14 00:40:03;;;;;;;3.20;2.93;;;10.10;99.90;;;;;;4906646;29;21036;-88
2022/02/14 00:42:29;;;;;;;3.17;2.97;;;10.20;99.90;;;;;;4906251;29;20440;-88
2022/02/14 00:45:03;;;;;;;3.97;3.17;;;9.90;99.90;;;;;;4888499;29;20436;-87
2022/02/14 00:47:34;;;;;;;3.97;2.33;;;10.00;99.90;;;;;;4896927;29;20432;-87
2022/02/14 00:50:00;;;;;;;3.43;3.20;;;10.10;99.90;;;;;;4906011;29;20446;-87
2022/02/14 00:52:31;;;;;;;3.40;3.10;;;10.00;99.90;;;;;;4904033;29;20439;-88
2022/02/14 00:55:05;;;;;;;2.53;2.43;;;10.10;99.90;;;;;;4893852;29;20430;-88
2022/02/14 00:57:36;;;;;;;4.43;3.30;;;10.10;99.90;;;;;;4913367;29;20954;-90
2022/02/14 01:00:18;;;;;;;8.10;2.43;;;10.10;99.90;;;;;;4924954;29;20424;-90
2022/02/14 01:05:22;;;;;;;2.90;2.80;;;10.20;99.90;;;;;;5072469;23;20522;-89
2022/02/14 01:07:47;;;;;;;2.77;2.67;;;10.10;99.90;;;;;;4927051;29;20435;-88
2022/02/14 01:10:16;;;;;;;3.90;2.73;;;10.00;99.90;;;;;;4898326;29;20539;-88
2022/02/14 01:12:43;;;;;;;4.53;3.00;;;10.00;99.90;;;;;;4920625;29;20507;-89
2022/02/14 01:15:10;;;;;;;3.93;2.50;;;10.00;99.90;;;;;;4925325;29;20462;-89
2022/02/14 01:17:45;;;;;;;3.33;2.90;;;10.00;99.90;;;;;;4902756;29;20823;-88
2022/02/14 01:20:16;;;;;;;4.00;3.60;;;9.80;99.90;;;;;;4919377;29;20910;-88
2022/02/14 01:22:42;;;;;;;3.57;2.43;;;10.00;99.90;;;;;;4949231;29;20494;-87
2022/02/14 01:25:09;;;;;;;3.00;2.53;;;9.90;99.90;;;;;;4927443;29;20483;-87
2022/02/14 01:27:42;;;;;;;2.07;1.97;;;10.00;99.90;;;;;;4922765;29;20450;-87
2022/02/14 01:30:11;;;;;;;4.83;2.83;;;10.00;99.90;;;;;;4915474;29;20436;-87
2022/02/14 01:32:37;;;;;;;2.97;2.70;;;10.00;99.90;;;;;;4933926;29;20435;-87
2022/02/14 01:35:04;;;;;;;3.80;3.50;;;10.00;99.90;;;;;;4910285;29;20945;-87
2022/02/14 01:37:39;;;;;;;2.97;2.73;;;10.00;99.90;;;;;;4917886;29;20486;-89
2022/02/14 01:40:07;;;;;;;3.37;2.60;;;10.90;99.90;;;;;;4933272;29;20442;-89
2022/02/14 01:42:33;;;;;;;4.47;2.60;;;9.90;99.90;;;;;;4920264;29;20443;-86
2022/02/14 01:45:05;;;;;;;4.20;2.70;;;9.90;99.90;;;;;;4921564;29;20511;-86
2022/02/14 01:47:37;;;;;;;4.00;3.20;;;9.90;99.90;;;;;;4925912;29;20540;-86
2022/02/14 01:50:03;;;;;;;3.50;3.20;;;10.50;99.90;;;;;;4919588;29;20487;-88
2022/02/14 01:52:35;;;;;;;2.80;2.50;;;9.70;99.90;;;;;;4921702;29;20454;-88
2022/02/14 01:55:05;;;;;;;5.17;3.00;;;8.10;99.90;;;;;;4940146;29;20470;-87
2022/02/14 01:57:34;;;;;;;2.50;2.40;;;9.90;99.90;;;;;;4925640;29;20491;-88
2022/02/14 02:00:08;;;;;;;4.20;3.37;;;9.80;99.90;;;;;;4946549;29;20847;-88
2022/02/14 02:02:34;;;;;;;2.43;2.27;;;9.90;99.90;;;;;;4916215;29;20839;-88
2022/02/14 02:05:02;;;;;;;3.83;2.30;;;9.90;99.90;;;;;;4952208;29;20458;-87
2022/02/14 02:07:28;;;;;;;2.17;2.17;;;9.90;99.90;;;;;;4953688;29;20618;-87
2022/02/14 02:09:54;;;;;;;3.03;2.97;;;10.00;99.90;;;;;;4933127;29;20431;-87
2022/02/14 02:12:23;;;;;;;3.40;2.77;;;10.00;99.90;;;;;;4939402;29;20446;-87
2022/02/14 02:14:57;;;;;;;2.73;2.53;;;10.00;99.90;;;;;;4947483;29;20426;-87
2022/02/14 02:17:27;;;;;;;3.63;3.07;;;10.00;99.90;;;;;;4954964;29;20466;-87
2022/02/14 02:19:53;;;;;;;4.43;3.60;;;9.90;99.90;;;;;;4938468;29;20810;-88
2022/02/14 02:22:21;;;;;;;4.40;2.57;;;9.90;99.90;;;;;;4955454;29;20443;-89
2022/02/14 02:24:55;;;;;;;5.83;2.70;;;9.90;99.90;;;;;;4944749;29;20202;-88
2022/02/14 02:27:28;;;;;;;2.90;2.70;;;8.40;99.90;;;;;;4930163;29;20436;-88
2022/02/14 02:30:04;;;;;;;1.93;1.83;;;9.80;99.90;;;;;;4956225;29;20423;-88
2022/02/14 02:32:31;;;;;;;2.07;2.07;;;9.80;99.90;;;;;;4920401;29;20499;-87
2022/02/14 02:35:05;;;;;;;2.67;2.57;;;9.90;99.90;;;;;;4926133;29;20467;-87
2022/02/14 02:37:31;;;;;;;3.00;2.50;;;10.30;99.90;;;;;;4933036;29;20958;-89
2022/02/14 02:40:00;;;;;;;3.20;1.47;;;9.80;99.90;;;;;;4938770;29;20842;-88
2022/02/14 02:42:26;;;;;;;3.30;3.00;;;9.90;99.90;;;;;;4943328;29;20469;-87
2022/02/14 02:44:53;;;;;;;3.17;2.27;;;9.80;99.90;;;;;;4951344;29;20226;-87
2022/02/14 02:47:21;;;;;;;4.30;3.07;;;9.90;99.90;;;;;;4924012;29;20443;-89
2022/02/14 02:49:50;;;;;;;2.20;2.10;;;9.90;99.90;;;;;;4927913;29;20463;-89
2022/02/14 02:52:19;;;;;;;2.00;2.00;;;9.90;99.90;;;;;;4939134;29;20457;-89
2022/02/14 02:54:46;;;;;;;5.50;2.90;;;9.90;99.90;;;;;;4945394;29;20498;-89
2022/02/14 02:57:15;;;;;;;2.77;2.57;;;9.90;99.90;;;;;;4916349;29;20497;-89
2022/02/14 02:59:45;;;;;;;2.93;2.60;;;9.80;99.90;;;;;;4950540;29;20423;-90
2022/02/14 03:02:14;;;;;;;3.40;2.50;;;9.90;99.90;;;;;;4935657;29;20407;-88
2022/02/14 03:04:43;;;;;;;3.23;2.87;;;10.00;99.90;;;;;;4932528;29;20459;-88
2022/02/14 03:07:09;;;;;;;4.83;2.20;;;9.90;99.90;;;;;;4939267;29;20531;-89
2022/02/14 03:09:37;;;;;;;5.63;2.37;;;10.00;99.90;;;;;;4956393;29;20435;-88
2022/02/14 03:12:04;;;;;;;3.07;2.80;;;10.00;99.90;;;;;;4933079;29;20478;-88
2022/02/14 03:14:30;;;;;;;5.20;4.00;;;10.10;99.90;;;;;;4929214;29;21048;-88
2022/02/14 03:16:55;;;;;;;5.00;2.43;;;10.00;99.90;;;;;;4924818;29;20472;-88
2022/02/14 03:19:23;;;;;;;2.60;2.33;;;10.10;99.90;;;;;;4934568;29;20208;-89
2022/02/14 03:21:50;;;;;;;2.40;2.27;;;9.90;99.90;;;;;;4920917;29;20192;-88
2022/02/14 03:24:24;;;;;;;4.47;2.90;;;10.10;99.90;;;;;;4932763;29;20424;-88
2022/02/14 03:26:53;;;;;;;1.67;1.67;;;8.30;99.90;;;;;;4930579;29;20445;-87
2022/02/14 03:29:19;;;;;;;2.53;2.43;;;10.10;99.90;;;;;;4937962;29;20431;-87
2022/02/14 03:31:45;;;;;;;2.83;2.00;;;10.10;99.90;;;;;;4947827;29;20462;-87
2022/02/14 03:34:17;;;;;;;3.57;2.73;;;10.10;99.90;;;;;;4931910;29;20207;-87
2022/02/14 03:36:45;;;;;;;3.70;2.00;;;10.00;99.90;;;;;;4914184;29;20215;-87
2022/02/14 03:39:16;;;;;;;2.30;2.20;;;9.90;99.90;;;;;;4929325;29;20462;-88
2022/02/14 03:41:44;;;;;;;4.40;2.00;;;10.00;99.90;;;;;;4924547;29;20450;-89
2022/02/14 03:44:28;;;;;;;2.73;1.80;;;10.10;99.90;;;;;;4925211;29;20447;-84
2022/02/14 03:46:53;;;;;;;2.67;2.53;;;10.10;99.90;;;;;;4910757;29;20506;-87
2022/02/14 03:49:19;;;;;;;4.63;2.37;;;10.00;99.90;;;;;;4937761;29;20427;-88
2022/02/14 03:51:48;;;;;;;5.63;1.97;;;10.00;99.90;;;;;;4914304;29;20184;-86
2022/02/14 03:54:13;;;;;;;2.93;1.80;;;9.90;99.90;;;;;;4921758;29;20176;-87
2022/02/14 03:56:39;;;;;;;2.77;2.50;;;9.80;99.90;;;;;;4916570;29;20490;-87
2022/02/14 03:59:05;;;;;;;2.73;2.47;;;10.00;99.90;;;;;;4929536;29;20186;-88
2022/02/14 04:01:31;;;;;;;1.70;1.70;;;10.10;99.90;;;;;;4943054;29;20431;-86
2022/02/14 04:03:57;;;;;;;2.40;2.30;;;10.10;99.90;;;;;;4944720;29;21060;-87
2022/02/14 04:06:23;;;;;;;3.10;2.80;;;10.20;99.90;;;;;;4927337;29;20423;-89
2022/02/14 04:08:51;;;;;;;3.00;2.77;;;10.50;99.90;;;;;;4930354;29;20181;-88
2022/02/14 04:11:16;;;;;;;1.83;1.83;;;10.10;99.90;;;;;;4911881;29;20207;-88
2022/02/14 04:13:45;;;;;;;2.27;2.07;;;10.10;99.90;;;;;;4914750;29;20504;-87
2022/02/14 04:16:11;;;;;;;2.37;2.23;;;10.10;99.90;;;;;;4912508;29;20247;-83
2022/02/14 04:18:37;;;;;;;4.40;2.30;;;10.10;99.90;;;;;;4944182;29;20454;-87
2022/02/14 04:21:03;;;;;;;2.40;2.13;;;10.10;99.90;;;;;;4916842;29;20199;-88
2022/02/14 04:23:36;;;;;;;1.83;1.83;;;10.10;99.90;;;;;;4927195;29;20596;-88
2022/02/14 04:26:02;;;;;;;3.17;2.77;;;10.10;99.90;;;;;;4947175;29;20323;-84
2022/02/14 04:28:28;;;;;;;3.03;1.87;;;10.20;99.90;;;;;;4926332;29;20950;-88
2022/02/14 04:30:54;;;;;;;4.63;1.97;;;10.30;99.90;;;;;;4912796;29;20466;-88
2022/02/14 04:33:37;;;;;;;3.17;2.33;;;10.30;99.90;;;;;;4943699;29;20430;-87
2022/02/14 04:36:05;;;;;;;2.40;2.20;;;10.30;99.90;;;;;;4926102;29;20475;-89
2022/02/14 04:38:31;;;;;;;1.73;1.63;;;10.90;99.90;;;;;;4940044;29;20500;-85
2022/02/14 04:40:57;;;;;;;1.93;1.83;;;10.30;99.90;;;;;;4917367;29;20436;-89
2022/02/14 04:43:22;;;;;;;2.23;2.10;;;10.50;99.90;;;;;;4916041;29;20486;-86
2022/02/14 04:45:48;;;;;;;4.33;2.90;;;10.50;99.90;;;;;;4919394;29;20195;-86
2022/02/14 04:48:17;;;;;;;2.40;2.30;;;10.40;99.90;;;;;;4936067;29;20180;-86
2022/02/14 04:50:43;;;;;;;2.63;2.27;;;10.50;99.90;;;;;;4927541;29;20191;-90
2022/02/14 04:53:09;;;;;;;1.97;1.97;;;10.40;99.90;;;;;;4909345;29;20960;-88
2022/02/14 04:55:37;;;;;;;1.93;1.80;;;10.30;99.90;;;;;;4920829;29;20451;-89
2022/02/14 04:58:05;;;;;;;1.60;1.60;;;10.40;99.90;;;;;;4937531;29;20355;-88
2022/02/14 05:00:31;;;;;;;1.83;1.83;;;10.30;99.90;;;;;;4927205;29;20940;-88
2022/02/14 05:02:57;;;;;;;3.13;2.17;;;7.70;99.90;;;;;;4930158;29;20530;-88
2022/02/14 05:05:25;;;;;;;2.00;1.90;;;10.30;99.90;;;;;;4925442;29;20224;-86
2022/02/14 05:07:51;;;;;;;1.43;1.43;;;10.40;99.90;;;;;;4931445;29;20449;-89
2022/02/14 05:10:18;;;;;;;3.77;2.27;;;10.30;99.90;;;;;;4914676;29;20428;-88
2022/02/14 05:12:44;;;;;;;2.10;2.00;;;10.30;99.90;;;;;;4923016;29;20698;-87
2022/02/14 05:15:13;;;;;;;2.47;2.37;;;10.20;99.90;;;;;;4925232;29;20525;-88
2022/02/14 05:17:42;;;;;;;2.40;2.20;;;10.20;99.90;;;;;;4921442;29;20214;-86
2022/02/14 05:20:08;;;;;;;2.40;2.30;;;10.10;99.90;;;;;;4931662;29;20484;-87
2022/02/14 05:22:34;;;;;;;2.30;2.20;;;10.60;99.90;;;;;;4917999;29;20456;-87
2022/02/14 05:25:00;;;;;;;1.57;1.57;;;10.20;99.90;;;;;;4927729;29;20462;-86
2022/02/14 05:27:29;;;;;;;2.17;1.97;;;10.20;99.90;;;;;;4905213;29;20483;-86
2022/02/14 05:29:55;;;;;;;2.33;2.23;;;10.50;99.90;;;;;;4942716;29;20454;-88
2022/02/14 05:32:20;;;;;;;2.20;2.10;;;10.30;99.90;;;;;;4927763;29;20534;-86
2022/02/14 05:34:49;;;;;;;1.20;1.07;;;10.20;99.90;;;;;;4918162;29;20455;-88
2022/02/14 05:37:17;;;;;;;2.27;2.17;;;10.20;99.90;;;;;;4914374;29;20219;-87
2022/02/14 05:39:47;;;;;;;2.20;2.00;;;10.10;99.90;;;;;;4938200;29;20454;-89
2022/02/14 05:42:16;;;;;;;2.30;2.20;;;10.10;99.90;;;;;;4931750;29;20890;-88
2022/02/14 05:44:45;;;;;;;2.27;1.97;;;10.20;99.90;;;;;;4929276;29;20501;-87
2022/02/14 05:47:10;;;;;;;3.47;2.20;;;10.70;99.90;;;;;;4926678;29;20439;-82
2022/02/14 05:49:37;;;;;;;2.47;1.97;;;10.00;99.90;;;;;;4904818;29;20439;-86
2022/02/14 05:52:06;;;;;;;2.17;2.17;;;10.10;99.90;;;;;;4934869;29;20208;-86
2022/02/14 05:54:32;;;;;;;2.60;2.17;;;10.10;99.90;;;;;;4915601;29;20455;-84
2022/02/14 05:56:58;;;;;;;5.07;2.10;;;11.40;99.90;;;;;;4934069;29;20475;-86
2022/02/14 05:59:24;;;;;;;1.60;1.60;;;10.10;99.90;;;;;;4919886;29;20551;-80
2022/02/14 06:01:50;;;;;;;2.40;2.23;;;10.10;99.90;;;;;;4918386;29;20972;-87
2022/02/14 06:04:16;;;;;;;1.77;1.77;;;10.20;99.90;;;;;;4918217;29;20514;-87
2022/02/14 06:06:41;;;;;;;2.10;2.00;;;10.20;99.90;;;;;;4925931;29;20462;-78
2022/02/14 06:09:15;;;;;;;3.73;2.33;;;10.10;99.90;;;;;;4945254;29;20427;-86
2022/02/14 06:11:41;;;;;;;2.00;2.00;;;10.00;99.90;;;;;;4938326;29;20234;-88
2022/02/14 06:14:07;;;;;;;2.07;1.97;;;9.90;99.90;;;;;;4931800;29;20431;-87
2022/02/14 06:16:48;;;;;;;1.57;1.43;;;10.00;99.90;;;;;;4929792;29;20630;-86
2022/02/14 06:19:17;;;;;;;1.50;1.50;;;10.20;99.90;;;;;;4914029;29;20507;-88
2022/02/14 06:21:43;;;;;;;1.90;1.87;;;9.90;99.90;;;;;;4931117;29;20456;-81
2022/02/14 06:24:17;;;;;;;13.33;2.10;;;9.90;99.90;;;;;;4931049;29;20438;-87
2022/02/14 06:26:42;;;;;;;2.23;1.83;;;10.00;99.90;;;;;;4911873;29;20511;-87
2022/02/14 06:29:08;;;;;;;5.33;2.60;;;9.80;99.90;;;;;;4922245;29;20444;-79
2022/02/14 06:31:40;;;;;;;4.53;2.30;;;9.90;99.90;;;;;;4923895;29;20219;-89
2022/02/14 06:34:06;;;;;;;1.20;1.20;;;8.50;99.90;;;;;;4930792;29;20190;-81
2022/02/14 06:36:32;;;;;;;1.63;1.50;;;10.00;99.90;;;;;;4920057;29;20463;-88
2022/02/14 06:39:02;;;;;;;2.03;1.93;;;10.00;99.90;;;;;;4926782;29;20191;-87
2022/02/14 06:41:28;;;;;;;2.00;1.80;;;10.10;99.90;;;;;;4927539;29;20188;-85
2022/02/14 06:44:11;;;;;;;2.00;1.90;;;10.10;99.90;;;;;;4927189;29;20431;-88
2022/02/14 06:46:40;;;;;;;1.67;1.67;;;10.10;99.90;;;;;;4926385;29;20179;-87
2022/02/14 06:49:06;;;;;;;1.20;1.17;;;10.20;99.90;;;;;;4926779;29;20440;-81
2022/02/14 06:51:35;;;;;;;2.50;2.50;;;10.20;99.90;;;;;;4926756;29;20428;-82
2022/02/14 06:54:04;;;;;;;1.47;1.47;;;10.20;99.90;;;;;;4929538;29;20443;-85
2022/02/14 06:56:30;;;;;;;7.63;1.90;;;10.10;99.90;;;;;;4941883;29;20477;-85
2022/02/14 06:59:03;;;;;;;2.00;1.93;;;10.10;99.90;;;;;;4949688;29;20431;-88
2022/02/14 07:01:28;;;;;;;1.80;1.70;;;9.10;99.90;;;;;;4909039;29;20257;-81
2022/02/14 07:04:00;;;;;;;1.93;1.83;;;9.90;99.90;;;;;;4946352;29;20821;-85
2022/02/14 07:06:28;;;;;;;3.75;1.63;;;10.10;99.90;;;;;;4600137;29;9999921;-87
2022/02/14 07:08:54;;;;;;;2.70;2.37;;;10.20;99.90;;;;;;4921074;29;20191;-86
2022/02/14 07:11:23;;;;;;;1.60;1.47;;;10.20;99.90;;;;;;4942837;29;20443;-83
2022/02/14 07:13:55;;;;;;;3.33;2.07;;;11.00;99.90;;;;;;4926244;29;20451;-85
2022/02/14 07:16:20;;;;;;;2.00;1.80;;;10.40;99.90;;;;;;4923592;29;20435;-87
2022/02/14 07:18:49;;;;;;;4.57;1.67;;;10.20;99.90;;;;;;4912451;29;20428;-85
2022/02/14 07:21:20;;;;;;;2.30;2.20;;;10.30;99.90;;;;;;4923396;29;20974;-85
2022/02/14 07:23:52;;;;;;;1.53;1.53;;;10.30;99.90;;;;;;4939228;29;20952;-81
2022/02/14 07:26:18;;;;;;;2.00;1.77;;;10.40;99.90;;;;;;4933671;29;20474;-81
2022/02/14 07:29:04;;;;;;;1.57;1.57;;;9.60;99.90;;;;;;4947608;29;20431;-85
2022/02/14 07:31:37;;;;;;;1.87;1.80;;;10.50;99.90;;;;;;4916776;29;20972;-89
2022/02/14 07:34:08;;;;;;;1.40;1.40;;;10.50;99.90;;;;;;4925935;29;20447;-86
2022/02/14 07:36:36;;;;;;;2.27;2.07;;;10.50;99.90;;;;;;4919399;29;20485;-84
2022/02/14 07:39:04;;;;;;;1.60;1.50;;;10.50;99.90;;;;;;4943024;29;20477;-86
2022/02/14 07:41:39;;;;;;;1.53;1.53;;;10.30;99.90;;;;;;4933957;29;20838;-86
2022/02/14 07:44:06;;;;;;;2.40;1.63;;;11.70;99.90;;;;;;4917785;29;21084;-83
2022/02/14 07:46:38;;;;;;;1.50;1.50;;;10.40;99.90;;;;;;4910317;29;20447;-87
2022/02/14 07:49:04;;;;;;;1.80;1.80;;;9.40;99.90;;;;;;4932649;29;20427;-82
2022/02/14 07:51:39;;;;;;;1.50;1.40;;;10.80;99.90;;;;;;4930994;29;20550;-87
2022/02/14 07:54:04;;;;;;;3.80;3.50;;;10.60;99.90;;;;;;4931552;29;20433;-86
2022/02/14 07:56:30;;;;;;;2.33;2.13;;;10.70;99.90;;;;;;4929181;29;20470;-79
2022/02/14 07:59:05;;;;;;;1.93;1.53;;;10.60;99.90;;;;;;4930908;29;20509;-91
2022/02/14 08:01:38;;;;;;;1.80;1.80;;;11.50;99.90;;;;;;4931396;29;20338;-87
2022/02/14 08:04:05;;;;;;;1.70;1.70;;;10.80;99.90;;;;;;4936039;29;20455;-84
2022/02/14 08:06:31;;;;;;;1.83;1.83;;;10.70;99.90;;;;;;4912808;29;20451;-88
2022/02/14 08:08:57;;;;;;;1.90;1.90;;;11.00;99.90;;;;;;4916701;29;20941;-87
2022/02/14 08:13:56;;;;;;;1.80;1.80;;;10.80;99.90;;;;;;4911231;29;20879;-83
2022/02/14 08:16:22;;;;;;;2.00;1.90;;;10.80;99.90;;;;;;4895663;29;20428;-85
2022/02/14 08:18:47;;;;;;;1.50;1.50;;;11.30;99.90;;;;;;4891348;29;20633;-84
2022/02/14 08:21:13;;;;;;;1.70;1.70;;;10.80;99.90;;;;;;4892632;29;20181;-80
2022/02/14 08:23:39;;;;;;;1.30;1.30;;;11.10;99.90;;;;;;4876839;29;20430;-82
2022/02/14 08:26:05;;;;;;;2.50;2.43;;;10.70;99.90;;;;;;4895676;29;20180;-83
2022/02/14 08:28:31;;;;;;;2.03;1.93;;;11.00;99.90;;;;;;4910969;29;20182;-81
2022/02/14 08:30:56;;;;;;;1.73;1.73;;;10.90;99.90;;;;;;4912239;29;20428;-82
2022/02/14 08:33:22;;;;;;;1.60;1.60;;;11.00;99.90;;;;;;4893872;29;20184;-84
2022/02/14 08:35:47;;;;;;;1.97;1.83;;;11.30;99.90;;;;;;4909190;29;20204;-83
2022/02/14 08:38:15;;;;;;;1.80;1.70;;;11.00;99.90;;;;;;4911912;29;20216;-81
2022/02/14 08:40:41;;;;;;;1.80;1.80;;;11.40;99.90;;;;;;4910240;29;20195;-81
2022/02/14 08:43:07;;;;;;;2.80;2.53;;;11.80;99.90;;;;;;4911524;29;20514;-82
2022/02/14 08:45:33;;;;;;;2.37;2.27;;;11.40;99.90;;;;;;4909936;29;20206;-84
2022/02/14 08:48:01;;;;;;;2.73;2.00;;;11.60;99.90;;;;;;4890118;29;20231;-83
2022/02/14 08:50:29;;;;;;;1.80;1.80;;;11.40;99.90;;;;;;4911308;29;20420;-82
2022/02/14 08:52:55;;;;;;;2.20;2.10;;;11.10;99.90;;;;;;4909363;29;20435;-83
2022/02/14 08:55:21;;;;;;;2.10;2.00;;;10.90;99.90;;;;;;4891437;29;20508;-83
2022/02/14 08:57:46;;;;;;;1.90;1.90;;;11.10;99.90;;;;;;4891628;29;20476;-81
2022/02/14 09:00:13;;;;;;;2.87;2.73;;;11.10;99.90;;;;;;4894191;29;20204;-82
2022/02/14 09:02:39;;;;;;;2.00;1.90;;;11.10;99.90;;;;;;4891993;29;20243;-82
2022/02/14 09:05:05;;;;;;;2.30;2.07;;;11.00;99.90;;;;;;4913616;29;20933;-84
2022/02/14 09:07:31;;;;;;;1.80;1.80;;;11.30;99.90;;;;;;4895375;29;20757;-84
2022/02/14 09:10:00;;;;;;;1.67;1.67;;;11.30;99.90;;;;;;4894844;29;20499;-84
2022/02/14 09:12:25;;;;;;;1.77;1.77;;;11.30;99.90;;;;;;4902608;29;20476;-86
2022/02/14 09:14:52;;;;;;;2.17;2.00;;;11.70;99.90;;;;;;4894157;29;20427;-85
2022/02/14 09:17:18;;;;;;;2.03;2.03;;;13.20;99.90;;;;;;4552014;29;9999724;-86
2022/02/14 09:19:45;;;;;;;2.13;2.03;;;11.30;99.90;;;;;;4872714;29;20825;-84
2022/02/14 09:22:14;;;;;;;2.70;2.60;;;11.70;99.90;;;;;;4880736;29;20504;-86
2022/02/14 09:24:43;;;;;;;4.40;1.93;;;11.60;99.90;;;;;;4887503;29;20448;-88
2022/02/14 09:27:12;;;;;;;1.90;1.60;;;13.40;99.90;;;;;;4911229;29;20432;-89
2022/02/14 09:29:38;;;;;;;1.60;1.60;;;11.80;99.90;;;;;;4890421;29;21041;-87
2022/02/14 09:32:05;;;;;;;6.27;1.40;;;11.70;99.90;;;;;;4898772;29;20433;-86
2022/02/14 09:34:32;;;;;;;1.23;1.23;;;11.70;99.90;;;;;;4900148;29;20608;-85
2022/02/14 09:36:59;;;;;;;1.60;1.60;;;11.70;99.90;;;;;;4894229;29;20480;-84
2022/02/14 09:39:30;;;;;;;1.27;1.27;;;11.90;99.90;;;;;;4891646;29;20432;-84
2022/02/14 09:41:58;;;;;;;1.63;1.63;;;11.60;99.90;;;;;;4875310;29;20765;-84
2022/02/14 09:44:24;;;;;;;1.80;1.33;;;11.80;99.90;;;;;;4891388;29;20950;-84
2022/02/14 09:46:51;;;;;;;1.30;1.13;;;11.60;99.90;;;;;;4875666;29;20421;-83
2022/02/14 09:49:20;;;;;;;1.33;1.33;;;11.70;99.90;;;;;;4874191;29;20223;-83
2022/02/14 09:51:46;;;;;;;1.20;1.20;;;13.90;99.90;;;;;;4881308;29;20574;-83
2022/02/14 09:54:12;;;;;;;1.07;1.07;;;11.70;99.90;;;;;;4887003;29;20476;-83
2022/02/14 09:56:37;;;;;;;2.53;1.20;;;12.60;99.90;;;;;;4892963;29;20880;-83
2022/02/14 09:59:05;;;;;;;1.10;1.10;;;12.00;99.90;;;;;;4875069;29;20450;-84
2022/02/14 10:01:31;;;;;;;1.20;1.20;;;12.00;99.90;;;;;;4874183;29;20632;-85
2022/02/14 10:03:58;;;;;;;3.30;1.53;;;12.10;99.90;;;;;;4885298;29;20449;-83
2022/02/14 10:06:28;;;;;;;1.30;0.87;;;12.40;99.90;;;;;;4890765;29;20421;-84
2022/02/14 10:09:15;;;;;;;1.57;1.27;;;11.80;99.90;;;;;;4878082;29;20434;-83
2022/02/14 10:12:11;;;;;;;0.87;0.87;;;12.40;99.90;;;;;;4871276;29;20430;-83
2022/02/14 10:14:37;;;;;;;1.90;1.10;;;11.90;99.90;;;;;;4886004;29;20871;-84
2022/02/14 10:17:12;;;;;;;0.93;0.93;;;11.60;99.90;;;;;;4889976;29;20488;-85
2022/02/14 10:19:54;;;;;;;2.47;1.20;;;11.50;99.90;;;;;;4548070;29;10000400;-83
2022/02/14 10:22:20;;;;;;;1.07;0.67;;;11.80;99.90;;;;;;4874869;29;20223;-84
2022/02/14 10:24:45;;;;;;;0.50;0.50;;;11.90;99.90;;;;;;4856686;29;20506;-82
2022/02/14 10:27:13;;;;;;;0.70;0.70;;;11.90;99.90;;;;;;4858202;29;20438;-84
2022/02/14 10:29:41;;;;;;;0.60;0.60;;;12.30;99.90;;;;;;4890177;29;20223;-85
2022/02/14 10:32:17;;;;;;;1.37;0.97;;;12.00;99.90;;;;;;4896288;29;20583;-84
2022/02/14 10:34:47;;;;;;;0.60;0.60;;;12.20;99.90;;;;;;4892761;29;20778;-86
2022/02/14 10:37:15;;;;;;;0.60;0.60;;;12.40;99.90;;;;;;4894393;29;20991;-84
2022/02/14 10:39:43;;;;;;;2.67;0.83;;;12.30;99.90;;;;;;4872897;29;20449;-83
2022/02/14 10:42:25;;;;;;;;;;;;;;;;;;;;;
2022/02/14 10:45:09;;;;;;;2.53;1.40;;;12.20;99.90;;;;;;4890663;29;20443;-82
2022/02/14 10:47:47;;;;;;;1.10;1.10;;;12.20;99.90;;;;;;4889376;29;20424;-82
2022/02/14 10:50:18;;;;;;;1.30;1.30;;;12.50;99.90;;;;;;4873907;29;20425;-83
2022/02/14 10:52:56;;;;;;;0.90;0.90;;;12.40;99.90;;;;;;4874552;29;20413;-83
2022/02/14 10:55:33;;;;;;;1.27;1.03;;;12.60;99.90;;;;;;4892525;29;20428;-83
2022/02/14 10:58:00;;;;;;;0.90;0.90;;;12.30;99.90;;;;;;4885728;29;20485;-82
2022/02/14 11:00:30;;;;;;;0.93;0.90;;;12.20;99.90;;;;;;4860587;29;20433;-82
2022/02/14 11:02:58;;;;;;;0.80;0.80;;;12.10;99.90;;;;;;4874754;29;20515;-83
2022/02/14 11:05:25;;;;;;;0.93;0.93;;;11.90;99.90;;;;;;4874805;29;21052;-83
2022/02/14 11:07:52;;;;;;;1.03;1.03;;;12.20;99.90;;;;;;4894502;29;20431;-80
2022/02/14 11:10:19;;;;;;;0.97;0.93;;;11.30;99.90;;;;;;4876326;29;20719;-83
2022/02/14 11:12:56;;;;;;;0.70;0.70;;;11.60;99.90;;;;;;4894997;29;20881;-81
2022/02/14 11:15:28;;;;;;;1.03;1.03;;;11.80;99.90;;;;;;4889916;29;20532;-81
2022/02/14 11:17:59;;;;;;;0.80;0.80;;;11.70;99.90;;;;;;4876538;29;20469;-82
2022/02/14 11:20:25;;;;;;;1.10;1.10;;;11.30;99.90;;;;;;4875544;29;20436;-82
2022/02/14 11:22:54;;;;;;;3.07;1.07;;;11.50;99.90;;;;;;4890433;29;20445;-82
2022/02/14 11:25:38;;;;;;;1.27;1.23;;;11.60;99.90;;;;;;4876428;29;20476;-81
2022/02/14 11:28:31;;;;;;;0.90;0.90;;;12.20;99.90;;;;;;4895489;29;20412;-85
2022/02/14 11:31:06;;;;;;;0.60;0.60;;;14.00;98.20;;;;;;4870299;29;20602;-82
2022/02/14 11:33:32;;;;;;;0.50;0.50;;;14.20;96.40;;;;;;4876378;29;20933;-82
2022/02/14 11:36:05;;;;;;;0.60;0.53;;;13.30;94.50;;;;;;4882931;29;20433;-84
2022/02/14 11:38:46;;;;;;;0.50;0.50;;;14.10;94.60;;;;;;4897113;29;21033;-83
2022/02/14 11:41:26;;;;;;;0.80;0.70;;;14.10;93.90;;;;;;4893385;29;20429;-83
2022/02/14 11:44:08;;;;;;;1.30;1.20;;;14.90;93.00;;;;;;4895508;29;20428;-86
2022/02/14 11:46:34;;;;;;;0.67;0.67;;;15.10;91.30;;;;;;4882043;29;20441;-84
2022/02/14 11:49:03;;;;;;;0.83;0.60;;;14.70;91.20;;;;;;4547076;29;10000618;-86
2022/02/14 11:51:55;;;;;;;1.30;0.70;;;14.50;90.70;;;;;;4894050;29;20437;-85
2022/02/14 11:54:49;;;;;;;0.50;0.50;;;14.10;91.20;;;;;;4876886;29;20840;-85
2022/02/14 11:57:35;;;;;;;0.90;0.90;;;14.70;93.20;;;;;;4873917;29;20513;-86
2022/02/14 12:00:17;;;;;;;0.90;0.90;;;13.90;92.20;;;;;;4874189;29;20434;-84
2022/02/14 12:02:59;;;;;;;2.17;1.33;;;14.10;92.30;;;;;;4856325;29;20461;-84
2022/02/14 12:05:39;;;;;;;0.90;0.70;;;13.30;92.40;;;;;;4890626;29;20544;-85
2022/02/14 12:08:05;;;;;;;0.80;0.80;;;12.70;92.90;;;;;;4892149;29;21004;-82
2022/02/14 12:10:32;;;;;;;1.47;1.03;;;12.20;92.80;;;;;;4894305;29;20437;-83
2022/02/14 12:13:03;;;;;;;0.83;0.83;;;11.80;93.60;;;;;;4894615;29;20495;-83
2022/02/14 12:21:17;;;;;;;2.77;1.00;;;12.20;93.20;;;;;;4892524;29;20428;-82
2022/02/14 12:23:55;;;;;;;1.00;1.00;;;11.80;94.00;;;;;;4892981;29;20437;-84
2022/02/14 12:26:28;;;;;;;0.70;0.70;;;10.90;93.90;;;;;;4884709;29;20504;-82
2022/02/14 12:31:52;;;;;;;1.33;0.60;;;11.70;95.00;;;;;;4887528;29;20894;-76
2022/02/14 12:34:39;;;;;;;0.80;0.80;;;11.80;95.00;;;;;;4891513;29;20930;-83
2022/02/14 12:37:16;;;;;;;0.60;0.60;;;11.50;94.90;;;;;;4882730;29;20492;-81
2022/02/14 12:39:50;;;;;;;1.10;1.10;;;11.40;94.90;;;;;;4880678;29;20421;-82
2022/02/14 12:42:25;;;;;;;1.17;0.87;;;11.30;95.30;;;;;;4889544;29;20970;-84
2022/02/14 12:44:52;;;;;;;1.47;0.93;;;11.20;95.80;;;;;;4890216;29;20445;-82
2022/02/14 12:47:19;;;;;;;5.03;1.60;;;11.10;96.30;;;;;;4882428;29;20434;-82
2022/02/14 12:50:09;;;;;;;4.67;1.07;;;11.00;96.40;;;;;;4888342;29;20472;-83
2022/02/14 12:52:36;;;;;;;1.13;1.07;;;11.10;96.60;;;;;;4882216;29;20428;-83
2022/02/14 12:55:03;;;;;;;1.10;1.10;;;11.10;96.90;;;;;;4884057;29;20442;-84
2022/02/14 12:57:41;;;;;;;0.70;0.60;;;11.10;97.00;;;;;;4867632;29;20469;-86
2022/02/14 13:00:28;;;;;;;0.70;0.70;;;11.00;97.20;;;;;;4883744;29;20420;-84
2022/02/14 13:03:00;;;;;;;1.57;0.97;;;11.20;97.20;;;;;;4886212;29;20447;-84
2022/02/14 13:05:26;;;;;;;1.00;1.00;;;11.20;97.00;;;;;;4886649;29;20453;-84
2022/02/14 13:07:53;;;;;;;0.90;0.90;;;11.30;97.00;;;;;;4883956;29;20432;-84
2022/02/14 13:10:19;;;;;;;2.47;1.00;;;12.10;97.40;;;;;;4888783;29;20504;-82
2022/02/14 13:12:45;;;;;;;0.97;0.60;;;13.60;98.80;;;;;;4888432;29;20545;-85